createdAt,value
2018-09-01T00:02:19.997Z,8.08
2018-09-01T00:05:31.598Z,7.45
2018-09-01T00:08:42.661Z,7.72
2018-09-01T00:11:53.666Z,8.68
2018-09-01T00:15:04.806Z,7.60
2018-09-01T00:18:16.063Z,8.75
2018-09-01T00:21:27.331Z,8.38
2018-09-01T00:24:39.487Z,8.20
2018-09-01T00:27:51.240Z,6.70
2018-09-01T00:31:03.105Z,8.85
2018-09-01T00:34:14.286Z,7.70
2018-09-01T00:37:30.599Z,8.53
2018-09-01T00:40:42.353Z,8.83
2018-09-01T00:43:53.596Z,7.53
2018-09-01T00:47:04.741Z,9.73
2018-09-01T00:50:15.820Z,10.50
2018-09-01T00:53:26.948Z,7.83
2018-09-01T00:56:38.194Z,9.13
2018-09-01T00:59:50.096Z,8.35
2018-09-01T01:03:01.986Z,8.88
2018-09-01T01:06:13.131Z,8.53
2018-09-01T01:09:24.232Z,7.78
2018-09-01T01:12:36.216Z,9.00
2018-09-01T01:15:47.333Z,9.95
2018-09-01T01:18:59.009Z,8.18
2018-09-01T01:22:10.138Z,7.20
2018-09-01T01:25:21.973Z,8.25
2018-09-01T01:28:33.729Z,7.58
2018-09-01T01:31:45.647Z,9.28
2018-09-01T01:34:57.815Z,8.58
2018-09-01T01:38:09.774Z,8.85
2018-09-01T01:41:21.464Z,7.30
2018-09-01T01:44:32.901Z,7.80
2018-09-01T01:47:44.731Z,7.37
2018-09-01T01:50:55.924Z,8.00
2018-09-01T01:54:07.893Z,7.95
2018-09-01T01:57:19.107Z,8.85
2018-09-01T02:00:30.229Z,8.05
2018-09-01T02:03:41.605Z,6.70
2018-09-01T02:06:52.812Z,10.70
2018-09-01T02:10:05.075Z,7.60
2018-09-01T02:13:16.866Z,8.33
2018-09-01T02:16:27.950Z,8.18
2018-09-01T02:19:39.267Z,6.78
2018-09-01T02:22:50.635Z,6.40
2018-09-01T02:26:02.135Z,5.95
2018-09-01T02:29:13.582Z,5.60
2018-09-01T02:32:25.213Z,6.33
2018-09-01T02:35:36.521Z,7.08
2018-09-01T02:38:48.084Z,9.00
2018-09-01T02:41:59.066Z,8.78
2018-09-01T02:45:11.574Z,9.53
2018-09-01T02:48:23.139Z,5.72
2018-09-01T02:51:35.107Z,6.65
2018-09-01T02:54:46.393Z,7.97
2018-09-01T02:57:57.937Z,6.87
2018-09-01T03:01:14.892Z,7.95
2018-09-01T03:04:26.263Z,7.60
2018-09-01T03:07:37.844Z,8.43
2018-09-01T03:10:48.843Z,7.92
2018-09-01T03:14:00.208Z,7.83
2018-09-01T03:17:12.159Z,9.73
2018-09-01T03:20:24.591Z,7.30
2018-09-01T03:23:36.277Z,7.28
2018-09-01T03:26:47.667Z,5.95
2018-09-01T03:29:59.549Z,7.40
2018-09-01T03:33:10.577Z,7.62
2018-09-01T03:36:21.874Z,6.30
2018-09-01T03:39:33.077Z,9.15
2018-09-01T03:42:44.287Z,9.03
2018-09-01T03:45:55.416Z,10.35
2018-09-01T03:49:08.759Z,7.90
2018-09-01T03:52:20.645Z,6.83
2018-09-01T03:55:31.895Z,7.58
2018-09-01T03:58:43.196Z,7.35
2018-09-01T04:01:54.360Z,8.58
2018-09-01T04:05:07.843Z,7.47
2018-09-01T04:08:19.249Z,7.22
2018-09-01T04:11:30.554Z,8.20
2018-09-01T04:14:41.685Z,8.55
2018-09-01T04:17:52.781Z,7.33
2018-09-01T04:21:04.018Z,9.18
2018-09-01T04:24:15.253Z,7.60
2018-09-01T04:27:26.753Z,7.78
2018-09-01T04:30:38.556Z,7.08
2018-09-01T04:33:49.810Z,8.90
2018-09-01T04:37:00.850Z,7.70
2018-09-01T04:40:11.976Z,8.35
2018-09-01T04:43:23.395Z,8.18
2018-09-01T04:46:34.458Z,8.83
2018-09-01T04:49:45.486Z,8.15
2018-09-01T04:52:56.963Z,8.10
2018-09-01T04:56:08.555Z,9.88
2018-09-01T04:59:19.800Z,7.25
2018-09-01T05:02:32.309Z,8.33
2018-09-01T05:05:43.606Z,8.73
2018-09-01T05:08:54.658Z,7.75
2018-09-01T05:12:06.724Z,8.05
2018-09-01T05:15:18.195Z,6.35
2018-09-01T05:18:30.623Z,8.88
2018-09-01T05:21:42.495Z,7.45
2018-09-01T05:24:53.761Z,7.08
2018-09-01T05:28:05.516Z,9.10
2018-09-01T05:31:17.055Z,8.55
2018-09-01T05:34:29.136Z,10.03
2018-09-01T05:37:41.412Z,7.30
2018-09-01T05:40:53.518Z,8.30
2018-09-01T05:44:05.111Z,8.60
2018-09-01T05:47:16.997Z,9.45
2018-09-01T05:50:28.966Z,9.03
2018-09-01T05:53:40.948Z,8.33
2018-09-01T05:56:53.201Z,8.30
2018-09-01T06:00:05.086Z,7.47
2018-09-01T06:03:17.393Z,7.58
2018-09-01T06:06:29.102Z,6.22
2018-09-01T06:09:40.675Z,7.60
2018-09-01T06:12:52.456Z,6.83
2018-09-01T06:16:03.995Z,7.65
2018-09-01T06:19:15.599Z,9.30
2018-09-01T06:22:27.110Z,8.80
2018-09-01T06:25:39.997Z,9.60
2018-09-01T06:29:21.902Z,8.28
2018-09-01T06:32:33.693Z,8.45
2018-09-01T06:35:45.731Z,6.90
2018-09-01T06:38:56.905Z,6.95
2018-09-01T06:42:08.089Z,7.92
2018-09-01T06:45:19.163Z,8.38
2018-09-01T06:48:30.364Z,7.10
2018-09-01T06:51:42.319Z,6.37
2018-09-01T06:54:55.047Z,8.08
2018-09-01T06:58:06.912Z,7.28
2018-09-01T07:01:18.570Z,6.58
2018-09-01T07:04:30.661Z,5.97
2018-09-01T07:07:42.434Z,6.33
2018-09-01T07:10:54.649Z,8.93
2018-09-01T07:14:06.990Z,6.67
2018-09-01T07:17:18.332Z,5.97
2018-09-01T07:20:29.466Z,7.67
2018-09-01T07:23:41.244Z,6.55
2018-09-01T07:26:52.452Z,6.17
2018-09-01T07:30:05.496Z,5.65
2018-09-01T07:33:17.629Z,6.03
2018-09-01T07:36:28.739Z,6.67
2018-09-01T07:39:40.021Z,8.85
2018-09-01T07:42:51.828Z,7.60
2018-09-01T07:46:03.106Z,7.15
2018-09-01T07:49:15.044Z,5.72
2018-09-01T07:52:26.503Z,8.63
2018-09-01T07:55:38.396Z,6.92
2018-09-01T07:58:49.704Z,8.60
2018-09-01T08:02:01.739Z,7.20
2018-09-01T08:05:13.769Z,7.90
2018-09-01T08:08:25.782Z,7.12
2018-09-01T08:11:38.152Z,8.00
2018-09-01T08:14:49.909Z,6.90
2018-09-01T08:18:01.991Z,7.17
2018-09-01T08:21:13.132Z,6.70
2018-09-01T08:24:24.985Z,6.47
2018-09-01T08:27:36.820Z,4.85
2018-09-01T08:30:48.656Z,7.67
2018-09-01T08:34:00.184Z,6.47
2018-09-01T08:37:12.092Z,6.05
2018-09-01T08:40:24.290Z,9.15
2018-09-01T08:43:36.135Z,6.95
2018-09-01T08:46:48.061Z,5.72
2018-09-01T08:49:59.893Z,7.05
2018-09-01T08:53:11.335Z,6.42
2018-09-01T08:56:23.414Z,5.72
2018-09-01T08:59:34.460Z,6.08
2018-09-01T09:02:45.749Z,7.08
2018-09-01T09:05:57.256Z,6.75
2018-09-01T09:09:08.850Z,6.58
2018-09-01T09:12:20.523Z,5.87
2018-09-01T09:15:32.197Z,6.10
2018-09-01T09:18:43.942Z,4.95
2018-09-01T09:21:55.741Z,5.87
2018-09-01T09:25:07.567Z,6.03
2018-09-01T09:28:19.694Z,5.83
2018-09-01T09:31:31.844Z,4.87
2018-09-01T09:34:43.356Z,7.47
2018-09-01T09:37:55.375Z,6.58
2018-09-01T09:41:07.613Z,4.78
2018-09-01T09:44:18.800Z,5.78
2018-09-01T09:47:30.500Z,5.22
2018-09-01T09:50:42.551Z,5.95
2018-09-01T09:53:53.894Z,5.45
2018-09-01T09:57:06.824Z,5.75
2018-09-01T10:00:23.988Z,6.70
2018-09-01T10:03:37.706Z,6.15
2018-09-01T10:06:49.080Z,6.62
2018-09-01T10:10:00.856Z,4.60
2018-09-01T10:13:12.142Z,5.80
2018-09-01T10:16:23.379Z,6.53
2018-09-01T10:19:34.733Z,5.70
2018-09-01T10:22:46.709Z,6.65
2018-09-01T10:25:58.207Z,7.67
2018-09-01T10:29:09.288Z,5.85
2018-09-01T10:32:21.048Z,4.00
2018-09-01T10:35:32.509Z,7.05
2018-09-01T10:38:44.873Z,4.72
2018-09-01T10:41:56.144Z,5.25
2018-09-01T10:45:07.851Z,5.35
2018-09-01T10:48:19.723Z,6.42
2018-09-01T10:51:31.524Z,3.72
2018-09-01T10:54:42.814Z,5.50
2018-09-01T10:57:54.028Z,4.03
2018-09-01T11:01:05.535Z,4.30
2018-09-01T11:04:16.931Z,4.72
2018-09-01T11:07:28.883Z,4.28
2018-09-01T11:10:40.115Z,3.75
2018-09-01T11:13:52.182Z,4.85
2018-09-01T11:17:03.689Z,5.08
2018-09-01T11:20:15.688Z,5.62
2018-09-01T11:23:27.679Z,4.00
2018-09-01T11:26:39.396Z,4.95
2018-09-01T11:29:51.149Z,3.12
2018-09-01T11:33:03.361Z,4.20
2018-09-01T11:36:15.165Z,5.22
2018-09-01T11:39:26.971Z,4.22
2018-09-01T11:42:39.626Z,4.70
2018-09-01T11:45:53.171Z,6.00
2018-09-01T11:49:05.008Z,3.55
2018-09-01T11:52:16.707Z,4.05
2018-09-01T11:55:28.131Z,4.75
2018-09-01T11:58:40.219Z,3.98
2018-09-01T12:01:51.665Z,5.47
2018-09-01T12:05:02.788Z,5.47
2018-09-01T12:08:13.992Z,5.12
2018-09-01T12:11:25.154Z,5.35
2018-09-01T12:14:36.393Z,3.65
2018-09-01T12:17:49.168Z,4.58
2018-09-01T12:21:01.146Z,4.15
2018-09-01T12:24:12.362Z,5.33
2018-09-01T12:27:23.899Z,6.50
2018-09-01T12:30:35.293Z,4.58
2018-09-01T12:33:48.032Z,4.17
2018-09-01T12:36:59.481Z,4.22
2018-09-01T12:40:10.805Z,5.90
2018-09-01T12:43:22.479Z,5.50
2018-09-01T12:46:34.080Z,5.92
2018-09-01T12:49:45.223Z,4.25
2018-09-01T12:52:57.474Z,4.50
2018-09-01T12:56:09.751Z,5.33
2018-09-01T12:59:22.061Z,3.58
2018-09-01T13:02:34.026Z,3.58
2018-09-01T13:05:45.541Z,4.22
2018-09-01T13:08:56.717Z,3.95
2018-09-01T13:12:08.900Z,4.53
2018-09-01T13:15:20.562Z,3.80
2018-09-01T13:18:32.565Z,4.15
2018-09-01T13:21:44.125Z,3.15
2018-09-01T13:24:55.683Z,3.45
2018-09-01T13:28:07.622Z,3.05
2018-09-01T13:31:18.974Z,4.33
2018-09-01T13:34:30.929Z,3.98
2018-09-01T13:37:42.953Z,4.10
2018-09-01T13:40:54.370Z,4.20
2018-09-01T13:44:06.352Z,4.60
2018-09-01T13:47:17.790Z,3.12
2018-09-01T13:50:29.863Z,3.25
2018-09-01T13:53:41.962Z,6.25
2018-09-01T13:56:53.173Z,4.03
2018-09-01T14:00:05.792Z,3.60
2018-09-01T14:03:17.311Z,4.70
2018-09-01T14:06:28.670Z,5.03
2018-09-01T14:09:40.998Z,4.33
2018-09-01T14:12:52.650Z,3.67
2018-09-01T14:16:09.323Z,3.35
2018-09-01T14:19:21.442Z,3.47
2018-09-01T14:22:33.320Z,3.72
2018-09-01T14:25:48.011Z,5.33
2018-09-01T14:28:59.311Z,3.60
2018-09-01T14:32:11.394Z,4.92
2018-09-01T14:35:22.927Z,4.15
2018-09-01T14:38:34.365Z,2.20
2018-09-01T14:41:46.015Z,3.45
2018-09-01T14:44:57.619Z,3.75
2018-09-01T14:48:09.390Z,3.60
2018-09-01T14:51:21.227Z,5.78
2018-09-01T14:54:33.351Z,3.42
2018-09-01T14:57:44.925Z,3.05
2018-09-01T15:00:56.409Z,4.05
2018-09-01T15:04:09.430Z,3.25
2018-09-01T15:07:21.313Z,4.75
2018-09-01T15:10:33.412Z,3.77
2018-09-01T15:13:46.486Z,3.00
2018-09-01T15:17:00.114Z,4.50
2018-09-01T15:20:24.371Z,4.10
2018-09-01T15:23:41.910Z,5.40
2018-09-01T15:26:57.113Z,4.22
2018-09-01T15:30:15.999Z,3.47
2018-09-01T15:33:32.868Z,4.05
2018-09-01T15:40:18.051Z,3.75
2018-09-01T15:43:32.526Z,4.85
2018-09-01T15:46:45.032Z,3.27
2018-09-01T15:49:58.276Z,3.92
2018-09-01T15:53:12.135Z,4.03
2018-09-01T15:56:25.572Z,3.70
2018-09-01T15:59:39.757Z,4.10
2018-09-01T16:02:55.376Z,4.00
2018-09-01T16:06:08.920Z,5.42
2018-09-01T16:09:21.903Z,5.30
2018-09-01T16:12:36.394Z,5.17
2018-09-01T16:15:53.832Z,5.97
2018-09-01T16:19:08.632Z,6.10
2018-09-01T16:22:21.884Z,4.08
2018-09-01T16:29:09.326Z,5.05
2018-09-01T16:32:33.811Z,5.58
2018-09-01T16:35:57.774Z,4.92
2018-09-01T16:39:20.862Z,5.33
2018-09-01T16:42:36.524Z,5.15
2018-09-01T16:45:56.211Z,5.58
2018-09-01T16:49:12.555Z,6.03
2018-09-01T16:52:28.549Z,5.40
2018-09-01T16:55:49.818Z,7.42
2018-09-01T16:59:04.851Z,6.17
2018-09-01T17:02:19.724Z,6.58
2018-09-01T17:05:33.071Z,6.42
2018-09-01T17:08:45.788Z,7.10
2018-09-01T17:12:02.252Z,7.60
2018-09-01T17:15:15.184Z,5.00
2018-09-01T17:18:28.414Z,6.45
2018-09-01T17:21:42.591Z,4.55
2018-09-01T17:24:56.122Z,6.72
2018-09-01T17:28:09.335Z,5.95
2018-09-01T17:31:22.053Z,6.60
2018-09-01T17:34:33.797Z,5.70
2018-09-01T17:37:45.547Z,7.47
2018-09-01T17:40:57.087Z,6.90
2018-09-01T17:44:09.022Z,6.00
2018-09-01T17:47:21.108Z,5.10
2018-09-01T17:50:33.206Z,5.90
2018-09-01T17:53:45.255Z,7.25
2018-09-01T17:56:56.692Z,6.60
2018-09-01T18:00:08.896Z,6.30
2018-09-01T18:03:20.854Z,7.03
2018-09-01T18:06:32.327Z,6.62
2018-09-01T18:09:44.546Z,6.08
2018-09-01T18:12:56.321Z,6.58
2018-09-01T18:16:08.739Z,7.85
2018-09-01T18:19:19.925Z,7.42
2018-09-01T18:22:31.992Z,8.43
2018-09-01T18:25:44.124Z,7.08
2018-09-01T18:28:56.382Z,7.65
2018-09-01T18:32:08.613Z,6.33
2018-09-01T18:35:19.968Z,5.60
2018-09-01T18:38:31.767Z,7.33
2018-09-01T18:41:43.480Z,8.00
2018-09-01T18:44:55.928Z,5.25
2018-09-01T18:48:07.983Z,7.65
2018-09-01T18:51:20.295Z,5.87
2018-09-01T18:54:31.569Z,5.60
2018-09-01T18:57:42.781Z,6.93
2018-09-01T19:00:54.209Z,6.87
2018-09-01T19:04:05.741Z,5.45
2018-09-01T19:07:17.950Z,7.22
2018-09-01T19:10:29.844Z,8.25
2018-09-01T19:13:42.668Z,6.47
2018-09-01T19:16:56.751Z,6.90
2018-09-01T19:20:09.637Z,5.37
2018-09-01T19:23:22.297Z,7.05
2018-09-01T19:26:35.029Z,8.13
2018-09-01T19:29:48.453Z,7.03
2018-09-01T19:33:00.979Z,6.62
2018-09-01T19:36:13.170Z,6.55
2018-09-01T19:39:24.557Z,5.90
2018-09-01T19:42:36.110Z,6.95
2018-09-01T19:45:47.702Z,7.05
2018-09-01T19:48:59.882Z,7.70
2018-09-01T19:52:11.852Z,7.10
2018-09-01T19:55:23.767Z,7.70
2018-09-01T19:58:34.965Z,7.53
2018-09-01T20:01:46.976Z,7.35
2018-09-01T20:04:59.024Z,6.33
2018-09-01T20:08:10.241Z,8.30
2018-09-01T20:11:21.618Z,8.00
2018-09-01T20:14:33.258Z,6.12
2018-09-01T20:17:45.316Z,8.40
2018-09-01T20:20:56.467Z,6.80
2018-09-01T20:24:07.973Z,7.10
2018-09-01T20:27:19.573Z,7.67
2018-09-01T20:30:31.275Z,6.35
2018-09-01T20:33:42.707Z,6.95
2018-09-01T20:36:54.669Z,7.42
2018-09-01T20:40:07.325Z,7.47
2018-09-01T20:43:19.147Z,6.03
2018-09-01T20:46:31.096Z,6.15
2018-09-01T20:49:42.273Z,8.25
2018-09-01T20:52:53.279Z,6.72
2018-09-01T20:56:04.611Z,7.95
2018-09-01T20:59:16.290Z,5.92
2018-09-01T21:02:27.632Z,6.75
2018-09-01T21:05:38.905Z,7.00
2018-09-01T21:08:50.331Z,5.12
2018-09-01T21:12:02.347Z,6.97
2018-09-01T21:15:13.646Z,6.55
2018-09-01T21:18:25.406Z,7.67
2018-09-01T21:21:37.606Z,6.30
2018-09-01T21:24:49.759Z,7.65
2018-09-01T21:28:01.436Z,6.50
2018-09-01T21:31:12.619Z,6.22
2018-09-01T21:34:23.740Z,7.45
2018-09-01T21:37:35.904Z,7.17
2018-09-01T21:40:47.806Z,6.20
2018-09-01T21:43:59.346Z,7.37
2018-09-01T21:47:12.301Z,5.92
2018-09-01T21:50:23.428Z,6.75
2018-09-01T21:53:35.174Z,7.42
2018-09-01T21:56:47.032Z,7.90
2018-09-01T21:59:59.378Z,8.30
2018-09-01T22:03:11.555Z,6.42
2018-09-01T22:06:23.732Z,7.95
2018-09-01T22:09:35.899Z,10.00
2018-09-01T22:12:47.267Z,9.23
2018-09-01T22:15:59.297Z,8.48
2018-09-01T22:19:11.216Z,8.43
2018-09-01T22:22:22.637Z,8.95
2018-09-01T22:25:34.304Z,9.40
2018-09-01T22:28:46.188Z,9.23
2018-09-01T22:31:57.524Z,7.78
2018-09-01T22:35:09.150Z,6.87
2018-09-01T22:38:20.826Z,7.22
2018-09-01T22:41:32.824Z,6.95
2018-09-01T22:44:44.828Z,7.75
2018-09-01T22:47:56.512Z,8.05
2018-09-01T22:51:08.746Z,7.25
2018-09-01T22:54:20.731Z,7.25
2018-09-01T22:57:32.154Z,6.42
2018-09-01T23:00:43.358Z,8.10
2018-09-01T23:03:55.306Z,9.13
2018-09-01T23:07:07.104Z,7.37
2018-09-01T23:10:19.309Z,9.58
2018-09-01T23:13:31.064Z,9.93
2018-09-01T23:16:42.205Z,9.13
2018-09-01T23:19:53.827Z,9.30
2018-09-01T23:23:06.424Z,10.63
2018-09-01T23:26:18.277Z,9.73
2018-09-01T23:29:29.553Z,10.68
2018-09-01T23:32:41.546Z,10.32
2018-09-01T23:35:52.576Z,9.20
2018-09-01T23:39:04.459Z,11.70
2018-09-01T23:42:15.799Z,10.53
2018-09-01T23:45:28.372Z,9.70
2018-09-01T23:48:39.594Z,9.73
2018-09-01T23:51:50.997Z,11.73
2018-09-01T23:55:02.495Z,10.75
2018-09-01T23:58:13.507Z,10.75
